sensor_id;sensor_type;location;lat;lon;timestamp;P1;durP1;ratioP1;P2;durP2;ratioP2
55140;SDS011;41035;44.280;19.870;2023-01-10T00:00:09;87.40;;;44.58;;
55140;SDS011;41035;44.280;19.870;2023-01-10T00:02:35;55.45;;;28.88;;
55140;SDS011;41035;44.280;19.870;2023-01-10T00:05:01;46.17;;;24.38;;
55140;SDS011;41035;44.280;19.870;2023-01-10T00:07:27;43.20;;;22.13;;
55140;SDS011;41035;44.280;19.870;2023-01-10T00:09:53;38.08;;;19.55;;
55140;SDS011;41035;44.280;19.870;2023-01-10T00:12:19;27.70;;;14.10;;
55140;SDS011;41035;44.280;19.870;2023-01-10T00:15:04;48.63;;;25.08;;
55140;SDS011;41035;44.280;19.870;2023-01-10T00:17:30;63.25;;;33.15;;
55140;SDS011;41035;44.280;19.870;2023-01-10T00:19:56;67.05;;;34.35;;
55140;SDS011;41035;44.280;19.870;2023-01-10T00:22:22;67.38;;;31.77;;
55140;SDS011;41035;44.280;19.870;2023-01-10T00:24:50;83.10;;;43.72;;
55140;SDS011;41035;44.280;19.870;2023-01-10T00:27:16;96.28;;;51.28;;
55140;SDS011;41035;44.280;19.870;2023-01-10T00:29:47;77.38;;;42.38;;
55140;SDS011;41035;44.280;19.870;2023-01-10T00:32:15;95.82;;;51.95;;
55140;SDS011;41035;44.280;19.870;2023-01-10T00:34:41;188.00;;;86.15;;
55140;SDS011;41035;44.280;19.870;2023-01-10T00:37:07;132.38;;;62.13;;
55140;SDS011;41035;44.280;19.870;2023-01-10T00:39:33;116.10;;;53.85;;
55140;SDS011;41035;44.280;19.870;2023-01-10T00:41:59;140.43;;;69.35;;
55140;SDS011;41035;44.280;19.870;2023-01-10T00:44:44;181.35;;;101.88;;
55140;SDS011;41035;44.280;19.870;2023-01-10T00:47:11;151.98;;;83.20;;
55140;SDS011;41035;44.280;19.870;2023-01-10T00:49:37;51.28;;;27.15;;
55140;SDS011;41035;44.280;19.870;2023-01-10T00:52:03;38.00;;;20.73;;
55140;SDS011;41035;44.280;19.870;2023-01-10T00:54:29;50.00;;;31.98;;
55140;SDS011;41035;44.280;19.870;2023-01-10T00:56:55;27.33;;;16.40;;
55140;SDS011;41035;44.280;19.870;2023-01-10T00:59:22;29.90;;;16.33;;
55140;SDS011;41035;44.280;19.870;2023-01-10T01:01:48;30.92;;;17.27;;
55140;SDS011;41035;44.280;19.870;2023-01-10T01:04:15;30.60;;;16.40;;
55140;SDS011;41035;44.280;19.870;2023-01-10T01:06:44;28.85;;;15.50;;
55140;SDS011;41035;44.280;19.870;2023-01-10T01:09:12;40.25;;;21.15;;
55140;SDS011;41035;44.280;19.870;2023-01-10T01:11:38;25.73;;;14.13;;
55140;SDS011;41035;44.280;19.870;2023-01-10T01:14:04;42.25;;;20.70;;
55140;SDS011;41035;44.280;19.870;2023-01-10T01:16:30;34.55;;;17.40;;
55140;SDS011;41035;44.280;19.870;2023-01-10T01:18:57;28.67;;;16.52;;
55140;SDS011;41035;44.280;19.870;2023-01-10T01:21:23;45.95;;;24.13;;
55140;SDS011;41035;44.280;19.870;2023-01-10T01:23:55;40.15;;;21.60;;
55140;SDS011;41035;44.280;19.870;2023-01-10T01:26:24;32.05;;;19.17;;
55140;SDS011;41035;44.280;19.870;2023-01-10T01:28:51;27.52;;;13.68;;
55140;SDS011;41035;44.280;19.870;2023-01-10T01:31:17;19.10;;;11.27;;
55140;SDS011;41035;44.280;19.870;2023-01-10T01:33:43;84.45;;;36.60;;
55140;SDS011;41035;44.280;19.870;2023-01-10T01:36:11;98.05;;;42.38;;
55140;SDS011;41035;44.280;19.870;2023-01-10T01:38:38;53.90;;;24.95;;
55140;SDS011;41035;44.280;19.870;2023-01-10T01:41:04;29.90;;;14.40;;
55140;SDS011;41035;44.280;19.870;2023-01-10T01:44:04;27.00;;;11.55;;
55140;SDS011;41035;44.280;19.870;2023-01-10T01:46:31;23.70;;;12.35;;
55140;SDS011;41035;44.280;19.870;2023-01-10T01:48:58;34.58;;;17.48;;
55140;SDS011;41035;44.280;19.870;2023-01-10T01:51:26;29.80;;;15.20;;
55140;SDS011;41035;44.280;19.870;2023-01-10T01:53:58;19.83;;;10.80;;
55140;SDS011;41035;44.280;19.870;2023-01-10T01:56:45;27.08;;;14.30;;
55140;SDS011;41035;44.280;19.870;2023-01-10T01:59:13;21.45;;;10.25;;
55140;SDS011;41035;44.280;19.870;2023-01-10T02:01:40;24.17;;;12.67;;
55140;SDS011;41035;44.280;19.870;2023-01-10T02:04:17;26.60;;;14.13;;
55140;SDS011;41035;44.280;19.870;2023-01-10T02:06:45;23.58;;;12.85;;
55140;SDS011;41035;44.280;19.870;2023-01-10T02:09:17;27.98;;;15.05;;
55140;SDS011;41035;44.280;19.870;2023-01-10T02:11:46;19.35;;;9.32;;
55140;SDS011;41035;44.280;19.870;2023-01-10T02:14:12;15.23;;;7.75;;
55140;SDS011;41035;44.280;19.870;2023-01-10T02:16:39;12.10;;;7.20;;
55140;SDS011;41035;44.280;19.870;2023-01-10T02:19:06;12.68;;;7.35;;
55140;SDS011;41035;44.280;19.870;2023-01-10T02:24:10;17.17;;;9.05;;
55140;SDS011;41035;44.280;19.870;2023-01-10T02:26:47;16.15;;;8.25;;
55140;SDS011;41035;44.280;19.870;2023-01-10T02:34:33;15.55;;;8.52;;
55140;SDS011;41035;44.280;19.870;2023-01-10T02:37:11;21.17;;;11.27;;
55140;SDS011;41035;44.280;19.870;2023-01-10T02:42:23;16.65;;;8.93;;
55140;SDS011;41035;44.280;19.870;2023-01-10T02:45:11;16.15;;;7.82;;
55140;SDS011;41035;44.280;19.870;2023-01-10T02:47:40;13.18;;;6.22;;
55140;SDS011;41035;44.280;19.870;2023-01-10T02:50:24;13.18;;;6.20;;
55140;SDS011;41035;44.280;19.870;2023-01-10T02:52:52;18.13;;;8.48;;
55140;SDS011;41035;44.280;19.870;2023-01-10T02:55:19;23.40;;;11.75;;
55140;SDS011;41035;44.280;19.870;2023-01-10T03:05:42;13.23;;;6.97;;
55140;SDS011;41035;44.280;19.870;2023-01-10T03:08:25;12.90;;;7.10;;
55140;SDS011;41035;44.280;19.870;2023-01-10T03:13:20;17.20;;;8.77;;
55140;SDS011;41035;44.280;19.870;2023-01-10T03:15:48;22.38;;;11.52;;
55140;SDS011;41035;44.280;19.870;2023-01-10T03:18:16;16.40;;;8.40;;
55140;SDS011;41035;44.280;19.870;2023-01-10T03:20:44;14.48;;;7.80;;
55140;SDS011;41035;44.280;19.870;2023-01-10T03:23:11;10.38;;;5.93;;
55140;SDS011;41035;44.280;19.870;2023-01-10T03:25:38;11.32;;;5.80;;
55140;SDS011;41035;44.280;19.870;2023-01-10T03:30:50;11.32;;;6.03;;
55140;SDS011;41035;44.280;19.870;2023-01-10T03:33:19;11.57;;;6.85;;
55140;SDS011;41035;44.280;19.870;2023-01-10T03:38:14;7.03;;;4.13;;
55140;SDS011;41035;44.280;19.870;2023-01-10T03:40:48;6.72;;;4.03;;
55140;SDS011;41035;44.280;19.870;2023-01-10T03:43:18;8.50;;;4.25;;
55140;SDS011;41035;44.280;19.870;2023-01-10T03:46:17;7.50;;;4.23;;
55140;SDS011;41035;44.280;19.870;2023-01-10T03:48:46;32.13;;;16.75;;
55140;SDS011;41035;44.280;19.870;2023-01-10T03:51:14;13.80;;;7.85;;
55140;SDS011;41035;44.280;19.870;2023-01-10T03:53:41;10.02;;;6.78;;
55140;SDS011;41035;44.280;19.870;2023-01-10T03:56:11;30.25;;;16.30;;
55140;SDS011;41035;44.280;19.870;2023-01-10T03:58:37;45.00;;;23.20;;
55140;SDS011;41035;44.280;19.870;2023-01-10T04:01:04;71.85;;;41.65;;
55140;SDS011;41035;44.280;19.870;2023-01-10T04:03:30;7.90;;;6.15;;
55140;SDS011;41035;44.280;19.870;2023-01-10T04:05:56;5.45;;;3.90;;
55140;SDS011;41035;44.280;19.870;2023-01-10T04:08:22;4.35;;;2.50;;
55140;SDS011;41035;44.280;19.870;2023-01-10T04:10:48;3.75;;;2.63;;
55140;SDS011;41035;44.280;19.870;2023-01-10T04:13:14;5.18;;;2.67;;
55140;SDS011;41035;44.280;19.870;2023-01-10T04:15:40;13.88;;;7.93;;
55140;SDS011;41035;44.280;19.870;2023-01-10T04:18:06;10.70;;;5.03;;
55140;SDS011;41035;44.280;19.870;2023-01-10T04:20:32;9.80;;;6.50;;
55140;SDS011;41035;44.280;19.870;2023-01-10T04:22:58;9.65;;;6.53;;
55140;SDS011;41035;44.280;19.870;2023-01-10T04:25:24;8.13;;;3.70;;
55140;SDS011;41035;44.280;19.870;2023-01-10T04:27:51;6.20;;;2.70;;
55140;SDS011;41035;44.280;19.870;2023-01-10T04:30:17;4.93;;;2.67;;
55140;SDS011;41035;44.280;19.870;2023-01-10T04:32:44;3.97;;;2.42;;
55140;SDS011;41035;44.280;19.870;2023-01-10T04:35:10;4.53;;;2.00;;
55140;SDS011;41035;44.280;19.870;2023-01-10T04:37:36;2.35;;;1.60;;
55140;SDS011;41035;44.280;19.870;2023-01-10T04:40:02;2.22;;;1.67;;
55140;SDS011;41035;44.280;19.870;2023-01-10T04:42:28;4.25;;;2.72;;
55140;SDS011;41035;44.280;19.870;2023-01-10T04:44:55;6.22;;;2.33;;
55140;SDS011;41035;44.280;19.870;2023-01-10T04:47:21;6.90;;;4.68;;
55140;SDS011;41035;44.280;19.870;2023-01-10T04:49:47;9.05;;;6.03;;
55140;SDS011;41035;44.280;19.870;2023-01-10T04:52:13;4.60;;;3.05;;
55140;SDS011;41035;44.280;19.870;2023-01-10T04:54:39;9.55;;;6.20;;
55140;SDS011;41035;44.280;19.870;2023-01-10T04:57:05;8.35;;;4.55;;
55140;SDS011;41035;44.280;19.870;2023-01-10T04:59:31;13.65;;;7.15;;
55140;SDS011;41035;44.280;19.870;2023-01-10T05:01:57;6.32;;;3.85;;
55140;SDS011;41035;44.280;19.870;2023-01-10T05:04:23;9.00;;;4.57;;
55140;SDS011;41035;44.280;19.870;2023-01-10T05:06:50;10.23;;;5.18;;
55140;SDS011;41035;44.280;19.870;2023-01-10T05:09:16;5.63;;;3.42;;
55140;SDS011;41035;44.280;19.870;2023-01-10T05:11:42;10.30;;;6.55;;
55140;SDS011;41035;44.280;19.870;2023-01-10T05:14:08;14.50;;;7.63;;
55140;SDS011;41035;44.280;19.870;2023-01-10T05:16:34;13.75;;;7.40;;
55140;SDS011;41035;44.280;19.870;2023-01-10T05:19:00;12.73;;;7.90;;
55140;SDS011;41035;44.280;19.870;2023-01-10T05:21:26;12.40;;;7.20;;
55140;SDS011;41035;44.280;19.870;2023-01-10T05:23:52;11.77;;;7.07;;
55140;SDS011;41035;44.280;19.870;2023-01-10T05:26:19;6.28;;;4.40;;
55140;SDS011;41035;44.280;19.870;2023-01-10T05:28:45;6.78;;;4.32;;
55140;SDS011;41035;44.280;19.870;2023-01-10T05:31:12;5.63;;;3.38;;
55140;SDS011;41035;44.280;19.870;2023-01-10T05:33:42;9.63;;;4.88;;
55140;SDS011;41035;44.280;19.870;2023-01-10T05:36:08;6.50;;;4.55;;
55140;SDS011;41035;44.280;19.870;2023-01-10T05:38:34;6.82;;;3.70;;
55140;SDS011;41035;44.280;19.870;2023-01-10T05:41:00;3.53;;;2.75;;
55140;SDS011;41035;44.280;19.870;2023-01-10T05:43:27;4.40;;;3.13;;
55140;SDS011;41035;44.280;19.870;2023-01-10T05:45:53;10.00;;;4.15;;
55140;SDS011;41035;44.280;19.870;2023-01-10T05:48:19;8.30;;;4.80;;
55140;SDS011;41035;44.280;19.870;2023-01-10T05:50:45;12.30;;;6.20;;
55140;SDS011;41035;44.280;19.870;2023-01-10T05:53:11;14.45;;;7.70;;
55140;SDS011;41035;44.280;19.870;2023-01-10T05:55:37;13.52;;;5.55;;
55140;SDS011;41035;44.280;19.870;2023-01-10T05:58:03;16.75;;;7.47;;
55140;SDS011;41035;44.280;19.870;2023-01-10T06:00:29;46.55;;;21.08;;
55140;SDS011;41035;44.280;19.870;2023-01-10T06:02:56;18.67;;;9.98;;
55140;SDS011;41035;44.280;19.870;2023-01-10T06:05:22;30.88;;;18.25;;
55140;SDS011;41035;44.280;19.870;2023-01-10T06:07:49;31.73;;;18.33;;
55140;SDS011;41035;44.280;19.870;2023-01-10T06:10:15;78.13;;;47.35;;
55140;SDS011;41035;44.280;19.870;2023-01-10T06:12:42;69.32;;;39.83;;
55140;SDS011;41035;44.280;19.870;2023-01-10T06:15:08;46.67;;;23.75;;
55140;SDS011;41035;44.280;19.870;2023-01-10T06:17:34;161.23;;;74.30;;
55140;SDS011;41035;44.280;19.870;2023-01-10T06:20:00;101.45;;;44.13;;
55140;SDS011;41035;44.280;19.870;2023-01-10T06:22:26;90.10;;;36.15;;
55140;SDS011;41035;44.280;19.870;2023-01-10T06:24:53;162.18;;;62.95;;
55140;SDS011;41035;44.280;19.870;2023-01-10T06:27:19;98.95;;;40.05;;
55140;SDS011;41035;44.280;19.870;2023-01-10T06:29:45;489.95;;;222.43;;
55140;SDS011;41035;44.280;19.870;2023-01-10T06:32:11;305.20;;;127.90;;
55140;SDS011;41035;44.280;19.870;2023-01-10T06:34:38;175.88;;;75.97;;
55140;SDS011;41035;44.280;19.870;2023-01-10T06:37:04;157.95;;;68.80;;
55140;SDS011;41035;44.280;19.870;2023-01-10T06:39:30;152.50;;;59.67;;
55140;SDS011;41035;44.280;19.870;2023-01-10T06:41:56;161.00;;;66.10;;
55140;SDS011;41035;44.280;19.870;2023-01-10T06:44:22;103.22;;;47.58;;
55140;SDS011;41035;44.280;19.870;2023-01-10T06:46:48;146.75;;;64.35;;
55140;SDS011;41035;44.280;19.870;2023-01-10T06:49:14;85.95;;;41.75;;
55140;SDS011;41035;44.280;19.870;2023-01-10T06:51:40;79.05;;;42.35;;
55140;SDS011;41035;44.280;19.870;2023-01-10T06:54:06;81.53;;;41.35;;
55140;SDS011;41035;44.280;19.870;2023-01-10T06:56:32;128.85;;;54.28;;
55140;SDS011;41035;44.280;19.870;2023-01-10T06:58:58;59.58;;;28.42;;
55140;SDS011;41035;44.280;19.870;2023-01-10T07:01:24;105.97;;;47.92;;
55140;SDS011;41035;44.280;19.870;2023-01-10T07:03:50;145.93;;;74.75;;
55140;SDS011;41035;44.280;19.870;2023-01-10T07:06:16;82.97;;;39.22;;
55140;SDS011;41035;44.280;19.870;2023-01-10T07:08:43;86.30;;;35.33;;
55140;SDS011;41035;44.280;19.870;2023-01-10T07:11:10;53.15;;;23.50;;
55140;SDS011;41035;44.280;19.870;2023-01-10T07:13:37;33.92;;;16.85;;
55140;SDS011;41035;44.280;19.870;2023-01-10T07:16:04;31.90;;;16.83;;
55140;SDS011;41035;44.280;19.870;2023-01-10T07:18:31;51.42;;;27.48;;
55140;SDS011;41035;44.280;19.870;2023-01-10T07:20:58;97.95;;;46.92;;
55140;SDS011;41035;44.280;19.870;2023-01-10T07:23:24;62.25;;;34.75;;
55140;SDS011;41035;44.280;19.870;2023-01-10T07:25:50;74.05;;;37.97;;
55140;SDS011;41035;44.280;19.870;2023-01-10T07:28:16;74.72;;;35.63;;
55140;SDS011;41035;44.280;19.870;2023-01-10T07:30:43;43.85;;;19.38;;
55140;SDS011;41035;44.280;19.870;2023-01-10T07:33:09;50.03;;;23.67;;
55140;SDS011;41035;44.280;19.870;2023-01-10T07:35:35;78.00;;;34.00;;
55140;SDS011;41035;44.280;19.870;2023-01-10T07:38:01;49.17;;;22.00;;
55140;SDS011;41035;44.280;19.870;2023-01-10T07:40:27;79.03;;;35.50;;
55140;SDS011;41035;44.280;19.870;2023-01-10T07:42:57;128.52;;;54.60;;
55140;SDS011;41035;44.280;19.870;2023-01-10T07:45:24;67.97;;;28.48;;
55140;SDS011;41035;44.280;19.870;2023-01-10T07:48:00;101.93;;;43.30;;
55140;SDS011;41035;44.280;19.870;2023-01-10T07:50:27;66.85;;;29.83;;
55140;SDS011;41035;44.280;19.870;2023-01-10T07:52:53;40.42;;;18.17;;
55140;SDS011;41035;44.280;19.870;2023-01-10T07:55:19;84.85;;;40.28;;
55140;SDS011;41035;44.280;19.870;2023-01-10T07:57:45;146.50;;;63.60;;
55140;SDS011;41035;44.280;19.870;2023-01-10T08:00:12;38.00;;;19.35;;
55140;SDS011;41035;44.280;19.870;2023-01-10T08:02:38;54.63;;;24.98;;
55140;SDS011;41035;44.280;19.870;2023-01-10T08:05:04;37.83;;;16.30;;
55140;SDS011;41035;44.280;19.870;2023-01-10T08:07:30;58.10;;;26.70;;
55140;SDS011;41035;44.280;19.870;2023-01-10T08:09:56;11.90;;;7.25;;
55140;SDS011;41035;44.280;19.870;2023-01-10T08:12:22;26.35;;;12.48;;
55140;SDS011;41035;44.280;19.870;2023-01-10T08:14:49;21.60;;;11.45;;
55140;SDS011;41035;44.280;19.870;2023-01-10T08:17:15;34.90;;;17.35;;
55140;SDS011;41035;44.280;19.870;2023-01-10T08:19:41;38.05;;;18.88;;
55140;SDS011;41035;44.280;19.870;2023-01-10T08:22:07;87.45;;;40.25;;
55140;SDS011;41035;44.280;19.870;2023-01-10T08:24:33;71.93;;;33.63;;
55140;SDS011;41035;44.280;19.870;2023-01-10T08:27:00;62.42;;;31.38;;
55140;SDS011;41035;44.280;19.870;2023-01-10T08:29:27;57.78;;;29.60;;
55140;SDS011;41035;44.280;19.870;2023-01-10T08:31:53;211.07;;;105.40;;
55140;SDS011;41035;44.280;19.870;2023-01-10T08:34:19;86.43;;;44.45;;
55140;SDS011;41035;44.280;19.870;2023-01-10T08:36:48;82.10;;;44.60;;
55140;SDS011;41035;44.280;19.870;2023-01-10T08:39:14;81.68;;;39.70;;
55140;SDS011;41035;44.280;19.870;2023-01-10T08:41:40;46.28;;;23.85;;
55140;SDS011;41035;44.280;19.870;2023-01-10T08:44:07;18.60;;;9.50;;
55140;SDS011;41035;44.280;19.870;2023-01-10T08:46:33;20.63;;;10.93;;
55140;SDS011;41035;44.280;19.870;2023-01-10T08:48:59;22.23;;;11.88;;
55140;SDS011;41035;44.280;19.870;2023-01-10T08:51:25;22.63;;;13.38;;
55140;SDS011;41035;44.280;19.870;2023-01-10T08:53:51;11.93;;;6.00;;
55140;SDS011;41035;44.280;19.870;2023-01-10T08:56:17;40.22;;;22.10;;
55140;SDS011;41035;44.280;19.870;2023-01-10T08:58:43;20.05;;;11.07;;
55140;SDS011;41035;44.280;19.870;2023-01-10T09:01:09;20.88;;;10.27;;
55140;SDS011;41035;44.280;19.870;2023-01-10T09:03:36;20.67;;;11.52;;
55140;SDS011;41035;44.280;19.870;2023-01-10T09:06:03;26.45;;;13.48;;
55140;SDS011;41035;44.280;19.870;2023-01-10T09:08:30;14.50;;;8.43;;
55140;SDS011;41035;44.280;19.870;2023-01-10T09:10:59;27.40;;;11.23;;
55140;SDS011;41035;44.280;19.870;2023-01-10T09:13:26;48.35;;;21.27;;
55140;SDS011;41035;44.280;19.870;2023-01-10T09:15:53;13.80;;;7.97;;
55140;SDS011;41035;44.280;19.870;2023-01-10T09:18:19;43.40;;;21.30;;
55140;SDS011;41035;44.280;19.870;2023-01-10T09:20:45;13.82;;;6.65;;
55140;SDS011;41035;44.280;19.870;2023-01-10T09:23:12;21.48;;;10.75;;
55140;SDS011;41035;44.280;19.870;2023-01-10T09:25:44;17.35;;;9.40;;
55140;SDS011;41035;44.280;19.870;2023-01-10T09:28:10;14.63;;;8.02;;
55140;SDS011;41035;44.280;19.870;2023-01-10T09:30:37;13.68;;;6.80;;
55140;SDS011;41035;44.280;19.870;2023-01-10T09:33:03;56.50;;;24.02;;
55140;SDS011;41035;44.280;19.870;2023-01-10T09:35:29;30.40;;;13.73;;
55140;SDS011;41035;44.280;19.870;2023-01-10T09:37:56;47.42;;;23.27;;
55140;SDS011;41035;44.280;19.870;2023-01-10T09:40:41;76.60;;;36.58;;
55140;SDS011;41035;44.280;19.870;2023-01-10T09:45:40;303.77;;;113.60;;
55140;SDS011;41035;44.280;19.870;2023-01-10T09:48:13;212.70;;;95.95;;
55140;SDS011;41035;44.280;19.870;2023-01-10T09:53:27;58.08;;;35.47;;
55140;SDS011;41035;44.280;19.870;2023-01-10T09:55:56;89.75;;;52.65;;
55140;SDS011;41035;44.280;19.870;2023-01-10T09:58:24;81.90;;;48.80;;
55140;SDS011;41035;44.280;19.870;2023-01-10T10:01:08;248.20;;;98.93;;
55140;SDS011;41035;44.280;19.870;2023-01-10T10:03:40;138.77;;;63.72;;
55140;SDS011;41035;44.280;19.870;2023-01-10T10:06:08;139.18;;;68.30;;
55140;SDS011;41035;44.280;19.870;2023-01-10T10:08:36;36.20;;;17.90;;
55140;SDS011;41035;44.280;19.870;2023-01-10T10:16:02;29.98;;;15.85;;
55140;SDS011;41035;44.280;19.870;2023-01-10T10:18:41;144.80;;;67.35;;
55140;SDS011;41035;44.280;19.870;2023-01-10T10:26:12;60.88;;;29.98;;
55140;SDS011;41035;44.280;19.870;2023-01-10T10:31:29;28.42;;;16.30;;
55140;SDS011;41035;44.280;19.870;2023-01-10T10:36:42;75.10;;;31.88;;
55140;SDS011;41035;44.280;19.870;2023-01-10T10:39:12;34.83;;;17.80;;
55140;SDS011;41035;44.280;19.870;2023-01-10T10:41:40;37.85;;;19.63;;
55140;SDS011;41035;44.280;19.870;2023-01-10T10:44:29;50.33;;;25.55;;
55140;SDS011;41035;44.280;19.870;2023-01-10T10:46:56;59.38;;;28.88;;
55140;SDS011;41035;44.280;19.870;2023-01-10T10:49:35;45.17;;;23.10;;
55140;SDS011;41035;44.280;19.870;2023-01-10T10:52:02;41.97;;;20.45;;
55140;SDS011;41035;44.280;19.870;2023-01-10T10:54:32;28.88;;;17.02;;
55140;SDS011;41035;44.280;19.870;2023-01-10T10:57:01;35.13;;;20.90;;
55140;SDS011;41035;44.280;19.870;2023-01-10T10:59:27;32.80;;;23.42;;
55140;SDS011;41035;44.280;19.870;2023-01-10T11:01:53;41.45;;;27.08;;
55140;SDS011;41035;44.280;19.870;2023-01-10T11:04:20;36.88;;;20.60;;
55140;SDS011;41035;44.280;19.870;2023-01-10T11:06:46;53.65;;;32.13;;
55140;SDS011;41035;44.280;19.870;2023-01-10T11:09:13;67.82;;;46.00;;
55140;SDS011;41035;44.280;19.870;2023-01-10T11:11:45;59.90;;;39.85;;
55140;SDS011;41035;44.280;19.870;2023-01-10T11:14:14;47.90;;;25.73;;
55140;SDS011;41035;44.280;19.870;2023-01-10T11:16:41;75.80;;;37.38;;
55140;SDS011;41035;44.280;19.870;2023-01-10T11:21:43;32.80;;;17.27;;
55140;SDS011;41035;44.280;19.870;2023-01-10T11:26:46;58.72;;;28.75;;
55140;SDS011;41035;44.280;19.870;2023-01-10T11:29:16;52.15;;;25.38;;
55140;SDS011;41035;44.280;19.870;2023-01-10T11:31:43;85.07;;;40.22;;
55140;SDS011;41035;44.280;19.870;2023-01-10T11:34:46;128.40;;;59.00;;
55140;SDS011;41035;44.280;19.870;2023-01-10T11:37:03;100.22;;;47.05;;
55140;SDS011;41035;44.280;19.870;2023-01-10T11:39:30;125.07;;;54.28;;
55140;SDS011;41035;44.280;19.870;2023-01-10T11:42:00;114.55;;;57.10;;
55140;SDS011;41035;44.280;19.870;2023-01-10T11:44:43;142.27;;;70.00;;
55140;SDS011;41035;44.280;19.870;2023-01-10T11:47:09;129.93;;;68.57;;
55140;SDS011;41035;44.280;19.870;2023-01-10T11:49:39;94.45;;;49.20;;
55140;SDS011;41035;44.280;19.870;2023-01-10T11:52:14;156.20;;;79.00;;
55140;SDS011;41035;44.280;19.870;2023-01-10T11:54:43;38.78;;;21.13;;
55140;SDS011;41035;44.280;19.870;2023-01-10T11:57:29;28.00;;;16.13;;
55140;SDS011;41035;44.280;19.870;2023-01-10T12:00:03;33.88;;;20.33;;
55140;SDS011;41035;44.280;19.870;2023-01-10T12:02:33;43.78;;;23.92;;
55140;SDS011;41035;44.280;19.870;2023-01-10T12:05:01;54.63;;;28.77;;
55140;SDS011;41035;44.280;19.870;2023-01-10T12:07:27;48.17;;;25.60;;
55140;SDS011;41035;44.280;19.870;2023-01-10T12:09:55;28.85;;;16.17;;
55140;SDS011;41035;44.280;19.870;2023-01-10T12:12:22;37.38;;;20.98;;
55140;SDS011;41035;44.280;19.870;2023-01-10T12:14:49;32.08;;;22.55;;
55140;SDS011;41035;44.280;19.870;2023-01-10T12:17:20;253.23;;;56.80;;
55140;SDS011;41035;44.280;19.870;2023-01-10T12:19:48;48.58;;;12.68;;
55140;SDS011;41035;44.280;19.870;2023-01-10T12:22:17;39.17;;;13.15;;
55140;SDS011;41035;44.280;19.870;2023-01-10T12:24:44;23.73;;;9.05;;
55140;SDS011;41035;44.280;19.870;2023-01-10T12:29:42;47.80;;;19.42;;
55140;SDS011;41035;44.280;19.870;2023-01-10T12:32:15;23.00;;;10.30;;
55140;SDS011;41035;44.280;19.870;2023-01-10T12:34:43;45.80;;;17.98;;
55140;SDS011;41035;44.280;19.870;2023-01-10T12:40:24;90.68;;;37.50;;
55140;SDS011;41035;44.280;19.870;2023-01-10T12:42:49;24.83;;;13.60;;
55140;SDS011;41035;44.280;19.870;2023-01-10T12:45:45;26.73;;;15.43;;
55140;SDS011;41035;44.280;19.870;2023-01-10T12:48:23;19.83;;;11.52;;
55140;SDS011;41035;44.280;19.870;2023-01-10T12:50:56;55.17;;;26.23;;
55140;SDS011;41035;44.280;19.870;2023-01-10T12:53:27;55.15;;;26.67;;
55140;SDS011;41035;44.280;19.870;2023-01-10T12:55:55;19.60;;;10.52;;
55140;SDS011;41035;44.280;19.870;2023-01-10T12:58:23;37.95;;;17.08;;
55140;SDS011;41035;44.280;19.870;2023-01-10T13:00:55;17.38;;;9.55;;
55140;SDS011;41035;44.280;19.870;2023-01-10T13:03:29;17.95;;;10.07;;
55140;SDS011;41035;44.280;19.870;2023-01-10T13:05:57;17.15;;;9.25;;
55140;SDS011;41035;44.280;19.870;2023-01-10T13:08:24;36.03;;;18.27;;
55140;SDS011;41035;44.280;19.870;2023-01-10T13:10:52;44.60;;;21.48;;
55140;SDS011;41035;44.280;19.870;2023-01-10T13:13:20;49.92;;;26.00;;
55140;SDS011;41035;44.280;19.870;2023-01-10T13:15:49;48.75;;;24.08;;
55140;SDS011;41035;44.280;19.870;2023-01-10T13:18:25;41.28;;;19.67;;
55140;SDS011;41035;44.280;19.870;2023-01-10T13:21:10;46.33;;;22.10;;
55140;SDS011;41035;44.280;19.870;2023-01-10T13:23:45;30.65;;;16.05;;
55140;SDS011;41035;44.280;19.870;2023-01-10T13:26:12;61.70;;;27.42;;
55140;SDS011;41035;44.280;19.870;2023-01-10T13:28:39;79.85;;;34.75;;
55140;SDS011;41035;44.280;19.870;2023-01-10T13:31:07;152.40;;;64.63;;
55140;SDS011;41035;44.280;19.870;2023-01-10T13:33:50;76.88;;;38.10;;
55140;SDS011;41035;44.280;19.870;2023-01-10T13:36:22;24.42;;;14.63;;
55140;SDS011;41035;44.280;19.870;2023-01-10T13:38:50;34.50;;;18.20;;
55140;SDS011;41035;44.280;19.870;2023-01-10T13:41:17;45.83;;;25.25;;
55140;SDS011;41035;44.280;19.870;2023-01-10T13:46:43;39.28;;;20.48;;
55140;SDS011;41035;44.280;19.870;2023-01-10T13:51:35;48.78;;;27.10;;
55140;SDS011;41035;44.280;19.870;2023-01-10T13:54:03;77.35;;;43.83;;
55140;SDS011;41035;44.280;19.870;2023-01-10T13:59:02;63.25;;;38.60;;
55140;SDS011;41035;44.280;19.870;2023-01-10T14:01:50;26.13;;;16.23;;
55140;SDS011;41035;44.280;19.870;2023-01-10T14:04:44;39.25;;;22.40;;
55140;SDS011;41035;44.280;19.870;2023-01-10T14:09:43;35.20;;;18.42;;
55140;SDS011;41035;44.280;19.870;2023-01-10T14:12:24;38.97;;;22.75;;
55140;SDS011;41035;44.280;19.870;2023-01-10T14:14:53;47.63;;;26.88;;
55140;SDS011;41035;44.280;19.870;2023-01-10T14:19:56;24.10;;;12.85;;
55140;SDS011;41035;44.280;19.870;2023-01-10T14:22:34;37.60;;;22.02;;
55140;SDS011;41035;44.280;19.870;2023-01-10T14:25:03;45.47;;;26.42;;
55140;SDS011;41035;44.280;19.870;2023-01-10T14:27:35;86.78;;;46.95;;
55140;SDS011;41035;44.280;19.870;2023-01-10T14:30:02;96.10;;;43.58;;
55140;SDS011;41035;44.280;19.870;2023-01-10T14:32:30;48.10;;;26.48;;
55140;SDS011;41035;44.280;19.870;2023-01-10T14:35:02;49.42;;;28.33;;
55140;SDS011;41035;44.280;19.870;2023-01-10T14:37:34;53.55;;;26.88;;
55140;SDS011;41035;44.280;19.870;2023-01-10T14:40:07;52.17;;;26.20;;
55140;SDS011;41035;44.280;19.870;2023-01-10T14:42:37;38.63;;;22.27;;
55140;SDS011;41035;44.280;19.870;2023-01-10T14:45:16;59.03;;;31.70;;
55140;SDS011;41035;44.280;19.870;2023-01-10T14:47:43;57.60;;;31.67;;
55140;SDS011;41035;44.280;19.870;2023-01-10T14:50:24;62.80;;;35.38;;
55140;SDS011;41035;44.280;19.870;2023-01-10T14:52:51;39.90;;;22.25;;
55140;SDS011;41035;44.280;19.870;2023-01-10T14:55:19;47.95;;;26.30;;
55140;SDS011;41035;44.280;19.870;2023-01-10T14:57:58;50.78;;;29.42;;
55140;SDS011;41035;44.280;19.870;2023-01-10T15:02:51;46.15;;;24.02;;
55140;SDS011;41035;44.280;19.870;2023-01-10T15:05:18;54.03;;;28.60;;
55140;SDS011;41035;44.280;19.870;2023-01-10T15:07:45;48.63;;;30.77;;
55140;SDS011;41035;44.280;19.870;2023-01-10T15:12:57;113.95;;;55.33;;
55140;SDS011;41035;44.280;19.870;2023-01-10T15:15:32;52.35;;;26.67;;
55140;SDS011;41035;44.280;19.870;2023-01-10T15:17:59;38.15;;;19.98;;
55140;SDS011;41035;44.280;19.870;2023-01-10T15:20:27;48.50;;;23.83;;
55140;SDS011;41035;44.280;19.870;2023-01-10T15:22:54;76.63;;;38.22;;
55140;SDS011;41035;44.280;19.870;2023-01-10T15:27:54;44.10;;;25.52;;
55140;SDS011;41035;44.280;19.870;2023-01-10T15:30:25;49.03;;;23.75;;
55140;SDS011;41035;44.280;19.870;2023-01-10T15:32:53;76.82;;;37.72;;
55140;SDS011;41035;44.280;19.870;2023-01-10T15:35:22;69.88;;;28.77;;
55140;SDS011;41035;44.280;19.870;2023-01-10T15:37:49;107.95;;;47.28;;